createdAt,value
2018-08-23T00:01:29.752Z,98833.47
2018-08-23T00:04:03.066Z,98833.19
2018-08-23T00:06:31.767Z,98832.04
2018-08-23T00:09:00.333Z,98828.50
2018-08-23T00:11:34.724Z,98833.33
2018-08-23T00:14:03.298Z,98823.00
2018-08-23T00:16:37.168Z,98822.13
2018-08-23T00:19:05.845Z,98823.51
2018-08-23T00:21:40.463Z,98824.86
2018-08-23T00:24:17.709Z,98820.73
2018-08-23T00:26:51.992Z,98824.91
2018-08-23T00:29:25.684Z,98822.53
2018-08-23T00:32:10.404Z,98824.64
2018-08-23T00:34:39.982Z,98810.20
2018-08-23T00:37:09.099Z,98814.30
2018-08-23T00:39:37.688Z,98818.75
2018-08-23T00:42:10.260Z,98815.02
2018-08-23T00:44:59.125Z,98816.62
2018-08-23T00:47:32.378Z,98819.06
2018-08-23T00:50:01.476Z,98822.52
2018-08-23T00:52:50.138Z,98823.16
2018-08-23T00:55:25.275Z,98820.50
2018-08-23T00:57:53.828Z,98825.25
2018-08-23T01:00:23.675Z,98827.33
2018-08-23T01:02:54.159Z,98831.33
2018-08-23T01:05:28.242Z,98830.36
2018-08-23T01:07:57.177Z,98839.93
2018-08-23T01:10:26.435Z,98828.86
2018-08-23T01:12:58.150Z,98825.61
2018-08-23T01:15:26.915Z,98821.83
2018-08-23T01:18:10.234Z,98825.69
2018-08-23T01:20:39.604Z,98823.75
2018-08-23T01:23:08.626Z,98824.17
2018-08-23T01:25:44.592Z,98820.73
2018-08-23T01:28:13.492Z,98818.07
2018-08-23T01:30:42.806Z,98817.97
2018-08-23T01:33:13.104Z,98814.72
2018-08-23T01:35:42.953Z,98804.55
2018-08-23T01:38:12.413Z,98809.30
2018-08-23T01:40:41.898Z,98809.02
2018-08-23T01:43:10.456Z,98807.00
2018-08-23T01:45:39.234Z,98799.91
2018-08-23T01:48:08.923Z,98797.54
2018-08-23T01:50:37.508Z,98791.34
2018-08-23T01:53:06.655Z,98794.19
2018-08-23T01:55:35.299Z,98792.52
2018-08-23T01:58:04.351Z,98796.22
2018-08-23T02:00:34.218Z,98790.66
2018-08-23T02:03:03.394Z,98788.14
2018-08-23T02:06:56.538Z,98783.44
2018-08-23T02:09:25.392Z,98788.38
2018-08-23T02:11:54.487Z,98778.31
2018-08-23T02:14:23.170Z,98787.00
2018-08-23T02:16:52.820Z,98788.70
2018-08-23T02:19:24.255Z,98785.98
2018-08-23T02:21:53.339Z,98790.44
2018-08-23T02:24:29.910Z,98788.70
2018-08-23T02:26:59.340Z,98795.31
2018-08-23T02:29:37.502Z,98792.54
2018-08-23T02:32:06.695Z,98794.42
2018-08-23T02:34:41.294Z,98793.89
2018-08-23T02:37:13.031Z,98791.88
2018-08-23T02:39:44.184Z,98785.98
2018-08-23T02:42:14.199Z,98788.86
2018-08-23T02:44:44.227Z,98787.77
2018-08-23T02:47:13.249Z,98790.80
2018-08-23T02:49:43.056Z,98790.33
2018-08-23T02:52:11.840Z,98790.67
2018-08-23T02:54:40.389Z,98791.19
2018-08-23T02:57:11.022Z,98795.73
2018-08-23T02:59:39.891Z,98788.01
2018-08-23T03:02:14.071Z,98787.64
2018-08-23T03:04:42.784Z,98781.77
2018-08-23T03:07:12.008Z,98784.13
2018-08-23T03:09:42.352Z,98783.62
2018-08-23T03:12:18.573Z,98790.33
2018-08-23T03:14:47.808Z,98794.56
2018-08-23T03:17:26.409Z,98792.56
2018-08-23T03:20:03.917Z,98789.69
2018-08-23T03:22:33.676Z,98777.25
2018-08-23T03:25:04.828Z,98786.47
2018-08-23T03:27:33.481Z,98783.13
2018-08-23T03:30:03.281Z,98779.44
2018-08-23T03:32:31.945Z,98778.92
2018-08-23T03:35:01.068Z,98782.63
2018-08-23T03:37:29.616Z,98774.55
2018-08-23T03:39:58.343Z,98781.43
2018-08-23T03:42:27.213Z,98785.64
2018-08-23T03:44:56.950Z,98781.28
2018-08-23T03:47:27.198Z,98787.01
2018-08-23T03:49:55.791Z,98781.95
2018-08-23T03:52:40.751Z,98782.63
2018-08-23T03:55:10.705Z,98782.80
2018-08-23T03:57:45.029Z,98789.86
2018-08-23T04:00:13.631Z,98784.30
2018-08-23T04:02:42.417Z,98779.76
2018-08-23T04:05:16.244Z,98784.98
2018-08-23T04:07:45.030Z,98782.94
2018-08-23T04:10:13.601Z,98785.12
2018-08-23T04:12:43.625Z,98779.73
2018-08-23T04:15:27.344Z,98784.96
2018-08-23T04:17:56.215Z,98773.37
2018-08-23T04:20:25.072Z,98779.10
2018-08-23T04:22:54.347Z,98780.59
2018-08-23T04:25:22.771Z,98780.44
2018-08-23T04:27:51.298Z,98779.10
2018-08-23T04:30:19.915Z,98785.47
2018-08-23T04:32:49.556Z,98781.42
2018-08-23T04:35:33.433Z,98786.98
2018-08-23T04:38:02.471Z,98786.48
2018-08-23T04:40:32.266Z,98783.79
2018-08-23T04:43:01.160Z,98778.75
2018-08-23T04:45:31.777Z,98781.94
2018-08-23T04:48:08.138Z,98775.56
2018-08-23T04:50:37.532Z,98776.87
2018-08-23T04:53:06.117Z,98778.20
2018-08-23T04:55:35.389Z,98776.70
2018-08-23T04:58:05.690Z,98776.20
2018-08-23T05:00:34.339Z,98778.73
2018-08-23T05:03:02.880Z,98771.00
2018-08-23T05:05:32.053Z,98777.74
2018-08-23T05:08:02.028Z,98775.23
2018-08-23T05:10:30.969Z,98776.14
2018-08-23T05:12:59.505Z,98773.36
2018-08-23T05:15:28.334Z,98771.11
2018-08-23T05:17:57.203Z,98771.39
2018-08-23T05:20:25.780Z,98773.63
2018-08-23T05:23:00.679Z,98773.16
2018-08-23T05:25:29.264Z,98773.03
2018-08-23T05:28:14.620Z,98774.34
2018-08-23T05:30:43.878Z,98778.16
2018-08-23T05:33:18.716Z,98769.15
2018-08-23T05:35:47.375Z,98773.34
2018-08-23T05:38:16.569Z,98778.39
2018-08-23T05:40:48.115Z,98777.39
2018-08-23T05:43:16.971Z,98773.56
2018-08-23T05:45:55.982Z,98771.53
2018-08-23T05:48:31.695Z,98772.05
2018-08-23T05:51:04.559Z,98768.48
2018-08-23T05:53:33.423Z,98777.56
2018-08-23T05:56:02.692Z,98776.22
2018-08-23T05:58:33.041Z,98774.53
2018-08-23T06:01:02.087Z,98772.20
2018-08-23T06:03:32.059Z,98775.50
2018-08-23T06:06:00.636Z,98776.98
2018-08-23T06:08:29.206Z,98769.59
2018-08-23T06:11:07.657Z,98770.56
2018-08-23T06:13:36.220Z,98773.11
2018-08-23T06:16:04.848Z,98773.83
2018-08-23T06:18:33.831Z,98775.18
2018-08-23T06:21:02.440Z,98785.77
2018-08-23T06:23:41.383Z,98785.92
2018-08-23T06:26:09.950Z,98780.16
2018-08-23T06:28:39.004Z,98782.75
2018-08-23T06:31:07.875Z,98783.13
2018-08-23T06:33:41.589Z,98773.35
2018-08-23T06:36:10.774Z,98786.09
2018-08-23T06:38:41.124Z,98779.95
2018-08-23T06:41:09.722Z,98780.42
2018-08-23T06:43:38.617Z,98777.39
2018-08-23T06:46:07.481Z,98777.11
2018-08-23T06:48:36.032Z,98769.97
2018-08-23T06:51:06.579Z,98774.37
2018-08-23T06:53:44.705Z,98774.53
2018-08-23T06:56:14.194Z,98775.17
2018-08-23T06:58:42.781Z,98786.31
2018-08-23T07:01:39.081Z,98775.95
2018-08-23T07:04:14.293Z,98783.44
2018-08-23T07:06:43.108Z,98788.17
2018-08-23T07:09:17.305Z,98780.34
2018-08-23T07:11:47.196Z,98782.05
2018-08-23T07:14:17.701Z,98784.95
2018-08-23T07:16:47.947Z,98780.64
2018-08-23T07:19:26.736Z,98785.19
2018-08-23T07:21:55.989Z,98782.05
2018-08-23T07:24:42.377Z,98783.41
2018-08-23T07:27:11.980Z,98781.92
2018-08-23T07:29:40.610Z,98780.48
2018-08-23T07:32:13.343Z,98777.41
2018-08-23T07:34:49.079Z,98778.59
2018-08-23T07:37:19.806Z,98769.19
2018-08-23T07:39:56.903Z,98761.05
2018-08-23T07:42:28.385Z,98764.11
2018-08-23T07:44:57.813Z,98764.91
2018-08-23T07:47:27.365Z,98759.02
2018-08-23T07:49:57.481Z,98756.92
2018-08-23T07:52:28.211Z,98765.42
2018-08-23T07:54:57.075Z,98775.41
2018-08-23T07:57:25.725Z,98770.95
2018-08-23T07:59:57.387Z,98770.32
2018-08-23T08:02:27.808Z,98766.30
2018-08-23T08:04:56.654Z,98771.86
2018-08-23T08:07:26.920Z,98771.73
2018-08-23T08:09:55.915Z,98769.66
2018-08-23T08:12:36.627Z,98774.77
2018-08-23T08:15:06.508Z,98774.48
2018-08-23T08:17:35.282Z,98769.66
2018-08-23T08:20:05.749Z,98755.30
2018-08-23T08:22:34.747Z,98767.18
2018-08-23T08:25:06.005Z,98770.31
2018-08-23T08:27:34.592Z,98770.73
2018-08-23T08:30:03.429Z,98766.37
2018-08-23T08:32:32.010Z,98770.38
2018-08-23T08:35:00.556Z,98768.96
2018-08-23T08:37:29.548Z,98758.49
2018-08-23T08:39:58.096Z,98767.84
2018-08-23T08:42:29.289Z,98769.97
2018-08-23T08:45:03.449Z,98768.30
2018-08-23T08:47:32.180Z,98769.66
2018-08-23T08:50:00.698Z,98761.94
2018-08-23T08:52:29.652Z,98766.77
2018-08-23T08:54:58.526Z,98764.64
2018-08-23T08:57:30.877Z,98766.55
2018-08-23T08:59:59.656Z,98756.02
2018-08-23T09:02:32.216Z,98754.98
2018-08-23T09:05:00.772Z,98757.56
2018-08-23T09:07:30.825Z,98758.78
2018-08-23T09:09:59.379Z,98757.99
2018-08-23T09:12:30.116Z,98756.59
2018-08-23T09:14:58.817Z,98754.23
2018-08-23T09:17:40.672Z,98747.09
2018-08-23T09:20:11.891Z,98740.11
2018-08-23T09:22:41.853Z,98735.23
2018-08-23T09:25:15.993Z,98738.31
2018-08-23T09:27:45.048Z,98741.78
2018-08-23T09:30:19.029Z,98753.16
2018-08-23T09:32:47.908Z,98747.32
2018-08-23T09:35:16.549Z,98749.80
2018-08-23T09:37:45.576Z,98742.83
2018-08-23T09:40:14.124Z,98734.55
2018-08-23T09:42:43.641Z,98727.65
2018-08-23T09:45:17.274Z,98726.27
2018-08-23T09:47:45.849Z,98732.01
2018-08-23T09:50:14.511Z,98731.16
2018-08-23T09:52:48.449Z,98733.42
2018-08-23T09:55:20.586Z,98729.59
2018-08-23T09:57:49.741Z,98739.20
2018-08-23T10:00:23.525Z,98728.37
2018-08-23T10:02:57.389Z,98719.63
2018-08-23T10:05:31.452Z,98710.70
2018-08-23T10:08:05.121Z,98704.36
2018-08-23T10:10:38.912Z,98704.81
2018-08-23T10:13:13.133Z,98708.95
2018-08-23T10:15:48.675Z,98705.80
2018-08-23T10:18:25.904Z,98693.52
2018-08-23T10:20:58.274Z,98696.01
2018-08-23T10:23:26.828Z,98697.92
2018-08-23T10:25:56.784Z,98694.65
2018-08-23T10:28:26.525Z,98683.31
2018-08-23T10:30:55.884Z,98679.00
2018-08-23T10:33:24.789Z,98695.20
2018-08-23T10:35:54.986Z,98692.77
2018-08-23T10:38:24.880Z,98679.84
2018-08-23T10:40:54.835Z,98681.42
2018-08-23T10:43:29.167Z,98681.78
2018-08-23T10:46:01.859Z,98672.91
2018-08-23T10:48:30.412Z,98675.73
2018-08-23T10:50:59.389Z,98665.21
2018-08-23T10:53:27.901Z,98660.88
2018-08-23T10:55:56.606Z,98660.22
2018-08-23T10:58:25.184Z,98660.42
2018-08-23T11:00:53.740Z,98670.47
2018-08-23T11:03:22.324Z,98674.78
2018-08-23T11:05:51.321Z,98660.95
2018-08-23T11:08:28.377Z,98669.61
2018-08-23T11:11:02.045Z,98656.98
2018-08-23T11:13:35.824Z,98660.16
2018-08-23T11:16:09.706Z,98668.64
2018-08-23T11:18:44.696Z,98658.63
2018-08-23T11:21:14.265Z,98653.95
2018-08-23T11:23:43.530Z,98659.05
2018-08-23T11:26:16.275Z,98650.83
2018-08-23T11:28:45.789Z,98649.72
2018-08-23T11:31:44.780Z,98650.91
2018-08-23T11:34:13.681Z,98647.84
2018-08-23T11:36:42.231Z,98642.35
2018-08-23T11:39:11.365Z,98630.83
2018-08-23T11:41:39.930Z,98639.91
2018-08-23T11:44:08.467Z,98634.48
2018-08-23T11:46:37.017Z,98625.79
2018-08-23T11:49:05.640Z,98624.79
2018-08-23T11:51:35.094Z,98626.94
2018-08-23T11:54:03.625Z,98615.13
2018-08-23T11:56:32.178Z,98617.12
2018-08-23T11:59:00.800Z,98622.33
2018-08-23T12:01:29.340Z,98617.32
2018-08-23T12:03:58.088Z,98601.04
2018-08-23T12:06:26.663Z,98613.13
2018-08-23T12:08:55.187Z,98602.60
2018-08-23T12:11:24.005Z,98593.28
2018-08-23T12:13:52.857Z,98601.67
2018-08-23T12:16:21.726Z,98593.53
2018-08-23T12:18:50.268Z,98601.64
2018-08-23T12:21:19.185Z,98597.25
2018-08-23T12:23:47.732Z,98602.83
2018-08-23T12:26:17.372Z,98599.43
2018-08-23T12:28:51.013Z,98595.66
2018-08-23T12:31:19.564Z,98585.19
2018-08-23T12:33:48.159Z,98582.25
2018-08-23T12:36:20.846Z,98582.55
2018-08-23T12:38:54.494Z,98573.66
2018-08-23T12:41:28.249Z,98584.43
2018-08-23T12:43:56.793Z,98576.77
2018-08-23T12:46:25.783Z,98560.34
2018-08-23T12:48:57.117Z,98567.79
2018-08-23T12:51:25.732Z,98575.53
2018-08-23T12:53:54.250Z,98560.02
2018-08-23T12:56:23.181Z,98555.72
2018-08-23T12:58:51.885Z,98563.28
2018-08-23T13:01:20.758Z,98548.11
2018-08-23T13:03:49.324Z,98551.52
2018-08-23T13:06:18.146Z,98544.77
2018-08-23T13:08:47.651Z,98545.57
2018-08-23T13:11:16.246Z,98540.45
2018-08-23T13:13:45.355Z,98533.73
2018-08-23T13:16:13.900Z,98537.50
2018-08-23T13:18:42.442Z,98524.19
2018-08-23T13:21:11.025Z,98533.57
2018-08-23T13:23:50.310Z,98532.92
2018-08-23T13:26:18.904Z,98526.97
2018-08-23T13:28:48.374Z,98522.77
2018-08-23T13:31:16.948Z,98525.72
2018-08-23T13:33:45.474Z,98514.12
2018-08-23T13:36:14.380Z,98515.64
2018-08-23T13:38:42.837Z,98507.73
2018-08-23T13:41:11.373Z,98509.28
2018-08-23T13:43:39.970Z,98508.48
2018-08-23T13:46:08.518Z,98503.09
2018-08-23T13:48:37.066Z,98506.45
2018-08-23T13:51:06.731Z,98493.92
2018-08-23T13:53:35.235Z,98496.77
2018-08-23T13:56:04.092Z,98500.50
2018-08-23T13:58:32.596Z,98496.24
2018-08-23T14:01:01.171Z,98497.08
2018-08-23T14:03:29.693Z,98496.66
2018-08-23T14:05:58.609Z,98491.20
2018-08-23T14:08:27.956Z,98498.63
2018-08-23T14:10:56.505Z,98481.55
2018-08-23T14:13:25.057Z,98480.22
2018-08-23T14:15:58.717Z,98475.07
2018-08-23T14:18:27.259Z,98474.90
2018-08-23T14:20:56.014Z,98473.45
2018-08-23T14:23:24.683Z,98476.02
2018-08-23T14:25:53.514Z,98471.53
2018-08-23T14:28:22.079Z,98475.81
2018-08-23T14:30:51.020Z,98468.50
2018-08-23T14:33:19.573Z,98470.29
2018-08-23T14:35:48.676Z,98464.87
2018-08-23T14:38:17.217Z,98469.04
2018-08-23T14:40:46.120Z,98468.81
2018-08-23T14:43:14.701Z,98460.64
2018-08-23T14:45:43.210Z,98459.69
2018-08-23T14:48:12.849Z,98459.63
2018-08-23T14:50:41.676Z,98460.44
2018-08-23T14:53:10.264Z,98455.27
2018-08-23T14:55:44.219Z,98449.25
2018-08-23T14:58:14.321Z,98449.03
2018-08-23T15:00:42.914Z,98446.80
2018-08-23T15:03:12.188Z,98446.61
2018-08-23T15:05:40.771Z,98444.35
2018-08-23T15:08:09.371Z,98439.33
2018-08-23T15:10:38.354Z,98434.01
2018-08-23T15:13:07.369Z,98436.13
2018-08-23T15:15:41.092Z,98430.48
2018-08-23T15:18:10.111Z,98429.91
2018-08-23T15:20:39.010Z,98428.16
2018-08-23T15:23:08.405Z,98418.67
2018-08-23T15:25:37.243Z,98428.28
2018-08-23T15:28:05.933Z,98418.64
2018-08-23T15:30:34.762Z,98415.75
2018-08-23T15:33:03.398Z,98411.86
2018-08-23T15:35:32.270Z,98421.13
2018-08-23T15:38:01.426Z,98408.16
2018-08-23T15:40:30.123Z,98407.13
2018-08-23T15:42:58.711Z,98406.38
2018-08-23T15:45:27.658Z,98399.16
2018-08-23T15:51:27.194Z,98392.20
2018-08-23T15:53:56.691Z,98388.79
2018-08-23T15:56:25.222Z,98388.41
2018-08-23T15:58:53.884Z,98389.44
2018-08-23T16:01:22.421Z,98390.20
2018-08-23T16:03:50.986Z,98388.45
2018-08-23T16:06:19.511Z,98393.05
2018-08-23T16:08:50.932Z,98390.75
2018-08-23T16:11:21.496Z,98395.39
2018-08-23T16:13:51.054Z,98385.47
2018-08-23T16:16:24.777Z,98382.77
2018-08-23T16:18:58.563Z,98385.69
2018-08-23T16:21:32.254Z,98380.55
2018-08-23T16:24:00.803Z,98381.95
2018-08-23T16:26:34.665Z,98380.42
2018-08-23T16:29:03.245Z,98376.58
2018-08-23T16:31:31.822Z,98372.25
2018-08-23T16:34:01.061Z,98365.47
2018-08-23T16:36:29.582Z,98365.52
2018-08-23T16:38:58.143Z,98361.66
2018-08-23T16:41:27.077Z,98360.95
2018-08-23T16:43:55.658Z,98360.73
2018-08-23T16:46:25.201Z,98359.57
2018-08-23T16:48:53.965Z,98356.82
2018-08-23T16:51:22.503Z,98364.85
2018-08-23T16:53:51.039Z,98359.12
2018-08-23T16:56:19.995Z,98357.70
2018-08-23T16:58:49.382Z,98352.86
2018-08-23T17:01:17.928Z,98352.84
2018-08-23T17:03:51.335Z,98350.25
2018-08-23T17:06:19.867Z,98355.26
2018-08-23T17:08:48.759Z,98355.23
2018-08-23T17:11:17.244Z,98352.27
2018-08-23T17:13:45.839Z,98345.81
2018-08-23T17:16:19.480Z,98356.88
2018-08-23T17:18:48.068Z,98358.13
2018-08-23T17:21:16.618Z,98350.50
2018-08-23T17:23:45.169Z,98344.95
2018-08-23T17:26:13.718Z,98344.59
2018-08-23T17:28:42.266Z,98337.23
2018-08-23T17:31:11.528Z,98333.08
2018-08-23T17:33:40.097Z,98328.95
2018-08-23T17:36:08.673Z,98328.41
2018-08-23T17:38:37.252Z,98333.56
2018-08-23T17:41:05.801Z,98335.62
2018-08-23T17:43:34.695Z,98336.66
2018-08-23T17:46:03.558Z,98342.66
2018-08-23T17:48:33.011Z,98342.88
2018-08-23T17:51:01.439Z,98341.68
2018-08-23T17:53:30.003Z,98340.98
2018-08-23T17:55:58.776Z,98342.77
2018-08-23T17:58:27.343Z,98346.46
2018-08-23T18:00:56.492Z,98344.12
2018-08-23T18:03:25.096Z,98340.73
2018-08-23T18:05:54.746Z,98334.23
2018-08-23T18:08:24.037Z,98335.89
2018-08-23T18:10:52.609Z,98338.43
2018-08-23T18:13:21.178Z,98336.20
2018-08-23T18:15:54.995Z,98339.26
2018-08-23T18:18:23.554Z,98347.37
2018-08-23T18:20:52.149Z,98349.00
2018-08-23T18:23:20.676Z,98350.94
2018-08-23T18:25:49.243Z,98351.25
2018-08-23T18:28:18.548Z,98359.38
2018-08-23T18:30:47.160Z,98360.92
2018-08-23T18:33:16.182Z,98351.36
2018-08-23T18:35:44.790Z,98351.74
2018-08-23T18:38:13.598Z,98350.38
2018-08-23T18:40:43.210Z,98346.97
2018-08-23T18:43:12.132Z,98346.56
2018-08-23T18:45:41.695Z,98350.79
2018-08-23T18:48:10.215Z,98347.44
2018-08-23T18:50:38.781Z,98347.09
2018-08-23T18:53:07.337Z,98350.94
2018-08-23T18:55:36.479Z,98350.64
2018-08-23T18:58:05.070Z,98352.09
2018-08-23T19:00:34.010Z,98357.36
2018-08-23T19:03:02.904Z,98354.80
2018-08-23T19:05:32.118Z,98349.20
2018-08-23T19:08:00.671Z,98343.16
2018-08-23T19:10:29.645Z,98343.70
2018-08-23T19:12:58.870Z,98356.80
2018-08-23T19:15:32.723Z,98356.28
2018-08-23T19:18:02.281Z,98360.78
2018-08-23T19:20:30.859Z,98365.86
2018-08-23T19:22:59.823Z,98360.83
2018-08-23T19:25:28.415Z,98361.89
2018-08-23T19:27:57.813Z,98360.74
2018-08-23T19:30:27.358Z,98365.59
2018-08-23T19:32:55.886Z,98360.41
2018-08-23T19:35:24.701Z,98367.21
2018-08-23T19:37:53.597Z,98365.30
2018-08-23T19:40:22.576Z,98371.39
2018-08-23T19:42:51.388Z,98373.19
2018-08-23T19:45:20.177Z,98376.67
2018-08-23T19:47:55.207Z,98373.39
2018-08-23T19:50:24.678Z,98380.72
2018-08-23T19:52:53.235Z,98383.39
2018-08-23T19:55:22.131Z,98382.19
2018-08-23T19:57:50.676Z,98379.80
2018-08-23T20:00:19.300Z,98379.03
2018-08-23T20:02:48.464Z,98373.90
2018-08-23T20:05:17.271Z,98373.69
2018-08-23T20:07:45.836Z,98378.61
2018-08-23T20:10:14.400Z,98397.22
2018-08-23T20:12:43.253Z,98418.23
2018-08-23T20:15:11.826Z,98421.88
2018-08-23T20:17:40.348Z,98416.20
2018-08-23T20:20:09.155Z,98414.59
2018-08-23T20:22:37.975Z,98412.19
2018-08-23T20:25:06.552Z,98423.31
2018-08-23T20:27:35.413Z,98423.66
2018-08-23T20:30:04.020Z,98439.30
2018-08-23T20:32:32.544Z,98434.09
2018-08-23T20:35:01.724Z,98442.14
2018-08-23T20:37:30.813Z,98442.27
2018-08-23T20:39:59.620Z,98454.17
2018-08-23T20:42:28.145Z,98458.66
2018-08-23T20:44:56.717Z,98465.86
2018-08-23T20:47:25.242Z,98460.87
2018-08-23T20:49:53.934Z,98465.25
2018-08-23T20:52:22.785Z,98456.58
2018-08-23T20:54:51.384Z,98463.73
2018-08-23T20:57:23.349Z,98465.19
2018-08-23T20:59:52.249Z,98458.16
2018-08-23T21:02:21.016Z,98457.73
2018-08-23T21:04:49.585Z,98457.09
2018-08-23T21:07:18.148Z,98460.45
2018-08-23T21:09:46.795Z,98457.20
2018-08-23T21:12:15.309Z,98455.77
2018-08-23T21:14:44.298Z,98455.30
2018-08-23T21:17:12.859Z,98445.05
2018-08-23T21:19:42.301Z,98455.27
2018-08-23T21:22:10.918Z,98453.09
2018-08-23T21:24:39.499Z,98446.23
2018-08-23T21:27:08.057Z,98452.57
2018-08-23T21:29:36.619Z,98452.81
2018-08-23T21:32:05.711Z,98449.11
2018-08-23T21:34:34.258Z,98454.81
2018-08-23T21:37:02.808Z,98445.77
2018-08-23T21:39:31.335Z,98445.06
2018-08-23T21:41:59.881Z,98453.17
2018-08-23T21:44:30.295Z,98449.31
2018-08-23T21:46:59.598Z,98450.77
2018-08-23T21:49:28.973Z,98454.02
2018-08-23T21:51:57.599Z,98454.10
2018-08-23T21:54:27.020Z,98457.64
2018-08-23T21:56:55.561Z,98455.51
2018-08-23T21:59:24.116Z,98460.23
2018-08-23T22:01:56.815Z,98462.01
2018-08-23T22:04:26.449Z,98459.41
2018-08-23T22:06:55.324Z,98454.55
2018-08-23T22:09:23.892Z,98449.25
2018-08-23T22:11:52.666Z,98446.44
2018-08-23T22:14:21.231Z,98445.91
2018-08-23T22:16:49.823Z,98452.74
2018-08-23T22:19:18.670Z,98443.45
2018-08-23T22:21:48.462Z,98451.02
2018-08-23T22:24:16.992Z,98453.22
2018-08-23T22:26:45.616Z,98451.66
2018-08-23T22:29:14.157Z,98457.78
2018-08-23T22:31:43.744Z,98461.34
2018-08-23T22:34:12.577Z,98470.41
2018-08-23T22:36:41.118Z,98462.19
2018-08-23T22:39:09.857Z,98463.28
2018-08-23T22:41:38.968Z,98465.30
2018-08-23T22:44:07.812Z,98462.30
2018-08-23T22:46:36.368Z,98462.04
2018-08-23T22:49:04.948Z,98459.36
2018-08-23T22:51:33.509Z,98456.13
2018-08-23T22:54:02.042Z,98462.37
2018-08-23T22:56:30.579Z,98462.30
2018-08-23T22:58:59.353Z,98468.95
2018-08-23T23:01:27.895Z,98463.22
2018-08-23T23:04:02.388Z,98457.67
2018-08-23T23:06:30.956Z,98455.55
2018-08-23T23:08:59.486Z,98452.03
2018-08-23T23:11:28.352Z,98447.83
2018-08-23T23:13:57.186Z,98445.65
2018-08-23T23:16:25.826Z,98439.77
2018-08-23T23:18:54.325Z,98441.98
2018-08-23T23:21:22.888Z,98443.97
2018-08-23T23:23:51.427Z,98442.67
2018-08-23T23:26:19.966Z,98443.03
2018-08-23T23:28:48.501Z,98447.52
2018-08-23T23:31:17.075Z,98449.39
2018-08-23T23:33:46.010Z,98448.75
2018-08-23T23:36:15.089Z,98447.64
2018-08-23T23:38:44.107Z,98438.83
2018-08-23T23:41:12.642Z,98434.39
2018-08-23T23:43:41.246Z,98436.41
2018-08-23T23:46:10.410Z,98430.81
2018-08-23T23:48:39.044Z,98443.03
2018-08-23T23:51:07.566Z,98433.83
2018-08-23T23:53:36.514Z,98432.15
2018-08-23T23:56:05.115Z,98424.94
2018-08-23T23:58:33.710Z,98423.54
